createdAt,value
2019-03-29T00:01:54.057Z,6.80
2019-03-29T00:04:24.209Z,6.70
2019-03-29T00:06:54.372Z,6.60
2019-03-29T00:09:24.527Z,6.60
2019-03-29T00:11:54.754Z,6.60
2019-03-29T00:14:25.037Z,6.50
2019-03-29T00:16:55.201Z,6.50
2019-03-29T00:19:25.348Z,6.50
2019-03-29T00:21:55.558Z,6.40
2019-03-29T00:24:25.732Z,6.40
2019-03-29T00:26:55.891Z,6.40
2019-03-29T00:29:26.070Z,6.40
2019-03-29T00:31:56.205Z,6.40
2019-03-29T00:34:26.347Z,6.40
2019-03-29T00:36:56.514Z,6.40
2019-03-29T00:39:26.859Z,6.30
2019-03-29T00:41:57.041Z,6.20
2019-03-29T00:44:27.231Z,6.10
2019-03-29T00:46:57.417Z,6.20
2019-03-29T00:49:28.782Z,6.20
2019-03-29T00:51:58.957Z,6.20
2019-03-29T00:54:29.108Z,6.20
2019-03-29T00:56:59.263Z,6.20
2019-03-29T00:59:29.382Z,6.20
2019-03-29T01:01:59.530Z,6.20
2019-03-29T01:04:29.695Z,6.20
2019-03-29T01:06:59.842Z,6.20
2019-03-29T01:09:30.256Z,6.20
2019-03-29T01:12:01.016Z,6.20
2019-03-29T01:14:31.193Z,6.10
2019-03-29T01:17:01.359Z,6.10
2019-03-29T01:19:32.482Z,6.00
2019-03-29T01:22:02.733Z,6.00
2019-03-29T01:24:32.913Z,6.00
2019-03-29T01:27:03.066Z,6.10
2019-03-29T01:29:33.209Z,6.00
2019-03-29T01:32:03.367Z,5.90
2019-03-29T01:34:33.535Z,5.80
2019-03-29T01:37:03.759Z,5.70
2019-03-29T01:39:34.014Z,5.70
2019-03-29T01:42:04.170Z,5.70
2019-03-29T01:44:34.305Z,5.70
2019-03-29T01:47:04.550Z,5.70
2019-03-29T01:49:34.725Z,5.70
2019-03-29T01:52:04.876Z,5.70
2019-03-29T01:54:35.017Z,5.60
2019-03-29T01:57:05.186Z,5.50
2019-03-29T01:59:35.407Z,5.40
2019-03-29T02:02:05.872Z,5.30
2019-03-29T02:04:36.062Z,5.40
2019-03-29T02:07:06.229Z,5.40
2019-03-29T02:09:36.481Z,5.40
2019-03-29T02:12:07.112Z,5.40
2019-03-29T02:14:38.667Z,5.40
2019-03-29T02:17:08.826Z,5.40
2019-03-29T02:19:38.967Z,5.40
2019-03-29T02:22:09.309Z,5.40
2019-03-29T02:24:39.661Z,5.40
2019-03-29T02:27:09.840Z,5.40
2019-03-29T02:29:39.990Z,5.40
2019-03-29T02:32:10.142Z,5.40
2019-03-29T02:34:40.286Z,5.50
2019-03-29T02:37:10.452Z,5.50
2019-03-29T02:39:40.755Z,5.50
2019-03-29T02:42:10.903Z,5.40
2019-03-29T02:44:41.055Z,5.40
2019-03-29T02:47:11.217Z,5.40
2019-03-29T02:49:41.370Z,5.40
2019-03-29T02:52:11.535Z,5.40
2019-03-29T02:54:41.853Z,5.40
2019-03-29T02:57:11.995Z,5.50
2019-03-29T02:59:42.182Z,5.50
2019-03-29T03:02:12.627Z,5.50
2019-03-29T03:04:42.962Z,5.50
2019-03-29T03:07:13.154Z,5.40
2019-03-29T03:09:43.326Z,5.40
2019-03-29T03:12:13.508Z,5.40
2019-03-29T03:14:43.671Z,5.30
2019-03-29T03:17:13.811Z,5.30
2019-03-29T03:19:43.938Z,5.30
2019-03-29T03:22:14.101Z,5.20
2019-03-29T03:24:44.263Z,5.20
2019-03-29T03:27:14.402Z,5.10
2019-03-29T03:29:48.197Z,5.00
2019-03-29T03:32:16.403Z,5.00
2019-03-29T03:34:46.875Z,4.90
2019-03-29T03:37:17.034Z,4.90
2019-03-29T03:39:47.261Z,4.80
2019-03-29T03:42:18.582Z,4.80
2019-03-29T03:44:48.769Z,4.80
2019-03-29T03:47:19.907Z,4.80
2019-03-29T03:49:50.048Z,4.80
2019-03-29T03:52:20.303Z,4.80
2019-03-29T03:54:50.549Z,4.80
2019-03-29T03:57:20.947Z,4.70
2019-03-29T03:59:53.182Z,4.60
2019-03-29T04:02:23.318Z,4.70
2019-03-29T04:04:53.468Z,4.60
2019-03-29T04:07:23.633Z,4.60
2019-03-29T04:09:53.819Z,4.60
2019-03-29T04:12:23.977Z,4.60
2019-03-29T04:14:54.130Z,4.50
2019-03-29T04:17:24.260Z,4.40
2019-03-29T04:19:54.418Z,4.40
2019-03-29T04:22:24.568Z,4.40
2019-03-29T04:24:54.719Z,4.40
2019-03-29T04:27:24.916Z,4.40
2019-03-29T04:29:55.070Z,4.40
2019-03-29T04:32:25.206Z,4.40
2019-03-29T04:34:55.404Z,4.40
2019-03-29T04:37:25.547Z,4.30
2019-03-29T04:40:07.143Z,4.30
2019-03-29T04:42:27.602Z,4.30
2019-03-29T04:44:59.775Z,4.30
2019-03-29T04:47:29.654Z,4.30
2019-03-29T04:49:59.843Z,4.30
2019-03-29T04:52:29.974Z,4.30
2019-03-29T04:55:00.366Z,4.30
2019-03-29T04:57:30.765Z,4.20
2019-03-29T05:00:01.071Z,4.20
2019-03-29T05:02:31.231Z,4.20
2019-03-29T05:05:01.381Z,4.20
2019-03-29T05:07:31.507Z,4.20
2019-03-29T05:10:01.653Z,4.10
2019-03-29T05:12:31.847Z,4.00
2019-03-29T05:15:02.006Z,4.00
2019-03-29T05:17:32.294Z,4.00
2019-03-29T05:20:02.570Z,4.00
2019-03-29T05:22:32.718Z,4.10
2019-03-29T05:25:02.966Z,4.10
2019-03-29T05:27:33.183Z,4.10
2019-03-29T05:30:03.707Z,4.10
2019-03-29T05:32:33.850Z,4.10
2019-03-29T05:35:04.119Z,4.10
2019-03-29T05:37:34.272Z,4.10
2019-03-29T05:40:04.901Z,4.20
2019-03-29T05:42:35.098Z,4.20
2019-03-29T05:45:07.050Z,4.20
2019-03-29T05:47:37.267Z,4.20
2019-03-29T05:50:08.643Z,4.20
2019-03-29T05:52:38.798Z,4.30
2019-03-29T05:55:08.969Z,4.30
2019-03-29T05:57:39.147Z,4.40
2019-03-29T06:00:12.275Z,4.40
2019-03-29T06:02:42.431Z,4.50
2019-03-29T06:05:12.705Z,4.50
2019-03-29T06:07:42.887Z,4.50
2019-03-29T06:10:13.382Z,4.60
2019-03-29T06:12:43.627Z,4.70
2019-03-29T06:15:14.155Z,4.90
2019-03-29T06:17:48.897Z,5.20
2019-03-29T06:20:16.351Z,5.40
2019-03-29T06:22:46.529Z,5.60
2019-03-29T06:25:16.761Z,5.90
2019-03-29T06:27:46.978Z,6.10
2019-03-29T06:30:24.070Z,6.40
2019-03-29T06:32:54.234Z,6.60
2019-03-29T06:35:25.041Z,6.90
2019-03-29T06:37:55.462Z,7.40
2019-03-29T06:40:26.657Z,7.90
2019-03-29T06:42:56.815Z,8.20
2019-03-29T06:45:26.977Z,8.50
2019-03-29T06:47:57.123Z,8.80
2019-03-29T06:50:27.286Z,9.20
2019-03-29T06:52:57.433Z,9.50
2019-03-29T06:55:27.624Z,9.90
2019-03-29T06:57:57.786Z,10.30
2019-03-29T07:00:28.007Z,10.60
2019-03-29T07:02:58.215Z,10.70
2019-03-29T07:05:28.436Z,11.00
2019-03-29T07:07:58.688Z,11.30
2019-03-29T07:10:28.869Z,11.60
2019-03-29T07:12:59.030Z,11.90
2019-03-29T07:15:29.174Z,12.20
2019-03-29T07:17:59.330Z,12.50
2019-03-29T07:20:30.569Z,12.70
2019-03-29T07:23:00.813Z,13.10
2019-03-29T07:25:30.966Z,13.30
2019-03-29T07:28:01.146Z,13.50
2019-03-29T07:30:31.417Z,13.70
2019-03-29T07:33:01.579Z,14.00
2019-03-29T07:35:31.762Z,14.20
2019-03-29T07:38:01.914Z,14.30
2019-03-29T07:40:32.137Z,14.50
2019-03-29T07:43:02.302Z,14.60
2019-03-29T07:45:32.598Z,14.70
2019-03-29T07:48:02.798Z,14.80
2019-03-29T07:50:32.978Z,14.90
2019-03-29T07:53:03.363Z,15.00
2019-03-29T07:55:36.887Z,15.00
2019-03-29T07:58:05.344Z,15.10
2019-03-29T08:00:35.492Z,15.30
2019-03-29T08:03:05.655Z,15.20
2019-03-29T08:05:35.865Z,14.90
2019-03-29T08:08:06.092Z,14.80
2019-03-29T08:10:37.078Z,14.80
2019-03-29T08:13:07.274Z,14.70
2019-03-29T08:15:37.510Z,14.60
2019-03-29T08:18:07.705Z,14.50
2019-03-29T08:20:41.963Z,14.00
2019-03-29T08:23:09.775Z,13.50
2019-03-29T08:25:39.927Z,13.50
2019-03-29T08:28:10.158Z,13.60
2019-03-29T08:30:40.337Z,13.80
2019-03-29T08:33:10.510Z,14.20
2019-03-29T08:35:40.741Z,14.40
2019-03-29T08:38:10.974Z,14.80
2019-03-29T08:40:41.157Z,14.90
2019-03-29T08:43:11.302Z,14.90
2019-03-29T08:45:41.458Z,15.00
2019-03-29T08:48:11.600Z,15.00
2019-03-29T08:50:41.826Z,15.10
2019-03-29T08:53:12.308Z,15.10
2019-03-29T08:55:45.951Z,15.20
2019-03-29T08:58:14.779Z,15.20
2019-03-29T09:00:44.938Z,15.00
2019-03-29T09:03:15.203Z,15.00
2019-03-29T09:05:46.031Z,14.70
2019-03-29T09:08:16.661Z,14.50
2019-03-29T09:10:46.801Z,14.40
2019-03-29T09:13:16.981Z,14.50
2019-03-29T09:15:47.150Z,14.50
2019-03-29T09:18:17.298Z,14.60
2019-03-29T09:20:47.431Z,14.70
2019-03-29T09:23:17.577Z,14.70
2019-03-29T09:25:47.799Z,14.60
2019-03-29T09:28:17.951Z,14.70
2019-03-29T09:30:48.206Z,14.90
2019-03-29T09:33:18.342Z,15.00
2019-03-29T09:35:48.493Z,15.10
2019-03-29T09:38:19.727Z,15.10
2019-03-29T09:40:58.244Z,15.20
2019-03-29T09:43:26.282Z,15.40
2019-03-29T09:45:54.843Z,15.50
2019-03-29T09:48:25.057Z,15.40
2019-03-29T09:50:55.302Z,15.50
2019-03-29T09:53:25.451Z,15.70
2019-03-29T09:55:55.622Z,15.90
2019-03-29T09:58:25.848Z,16.00
2019-03-29T10:00:55.998Z,16.10
2019-03-29T10:03:26.166Z,16.10
2019-03-29T10:05:56.330Z,16.00
2019-03-29T10:08:26.551Z,15.90
2019-03-29T10:10:56.753Z,15.90
2019-03-29T10:13:27.038Z,16.00
2019-03-29T10:15:57.179Z,16.00
2019-03-29T10:18:27.322Z,16.10
2019-03-29T10:20:57.514Z,16.20
2019-03-29T10:23:27.738Z,16.00
2019-03-29T10:25:58.716Z,15.80
2019-03-29T10:28:30.427Z,15.70
2019-03-29T10:31:00.793Z,15.80
2019-03-29T10:33:30.963Z,16.10
2019-03-29T10:36:01.187Z,16.10
2019-03-29T10:38:31.322Z,16.10
2019-03-29T10:41:01.497Z,16.10
2019-03-29T10:43:31.670Z,16.00
2019-03-29T10:46:01.955Z,16.00
2019-03-29T10:48:32.157Z,16.00
2019-03-29T10:51:02.356Z,16.10
2019-03-29T10:53:32.580Z,16.10
2019-03-29T10:56:03.113Z,16.20
2019-03-29T10:58:33.325Z,16.30
2019-03-29T11:01:03.512Z,16.40
2019-03-29T11:03:33.718Z,16.30
2019-03-29T11:06:03.990Z,16.30
2019-03-29T11:08:35.353Z,16.10
2019-03-29T11:11:05.665Z,15.90
2019-03-29T11:13:35.829Z,15.70
2019-03-29T11:16:06.238Z,15.70
2019-03-29T11:18:36.416Z,15.80
2019-03-29T11:21:06.742Z,16.00
2019-03-29T11:23:36.924Z,16.10
2019-03-29T11:26:07.078Z,16.10
2019-03-29T11:28:37.250Z,16.00
2019-03-29T11:31:07.516Z,16.10
2019-03-29T11:33:37.707Z,16.30
2019-03-29T11:36:08.054Z,16.50
2019-03-29T11:38:38.221Z,16.50
2019-03-29T11:41:08.419Z,16.60
2019-03-29T11:43:38.584Z,16.80
2019-03-29T11:46:08.742Z,16.90
2019-03-29T11:48:38.910Z,17.00
2019-03-29T11:51:19.173Z,17.00
2019-03-29T11:53:42.133Z,16.80
2019-03-29T11:56:12.274Z,16.80
2019-03-29T11:58:42.442Z,16.80
2019-03-29T12:01:12.651Z,16.90
2019-03-29T12:03:43.450Z,17.00
2019-03-29T12:06:13.658Z,17.10
2019-03-29T12:08:43.882Z,17.10
2019-03-29T12:11:14.118Z,17.20
2019-03-29T12:13:44.287Z,17.20
2019-03-29T12:16:14.454Z,17.10
2019-03-29T12:18:44.683Z,17.00
2019-03-29T12:21:14.842Z,17.00
2019-03-29T12:23:45.033Z,17.00
2019-03-29T12:26:15.173Z,17.10
2019-03-29T12:28:45.438Z,17.20
2019-03-29T12:31:15.607Z,17.40
2019-03-29T12:33:45.739Z,17.50
2019-03-29T12:36:16.118Z,17.50
2019-03-29T12:38:46.366Z,17.60
2019-03-29T12:41:16.549Z,17.50
2019-03-29T12:43:55.423Z,17.50
2019-03-29T12:46:18.803Z,17.40
2019-03-29T12:48:50.433Z,17.20
2019-03-29T12:51:20.845Z,16.90
2019-03-29T12:53:50.986Z,16.80
2019-03-29T12:56:21.261Z,16.80
2019-03-29T12:58:52.485Z,17.00
2019-03-29T13:01:22.891Z,17.10
2019-03-29T13:03:53.206Z,17.10
2019-03-29T13:06:23.431Z,17.10
2019-03-29T13:08:53.585Z,17.00
2019-03-29T13:11:24.026Z,16.90
2019-03-29T13:13:54.227Z,16.70
2019-03-29T13:16:27.514Z,16.70
2019-03-29T13:18:57.255Z,16.60
2019-03-29T13:21:27.414Z,16.70
2019-03-29T13:23:57.571Z,16.70
2019-03-29T13:26:28.017Z,16.70
2019-03-29T13:28:58.211Z,16.70
2019-03-29T13:31:28.370Z,16.60
2019-03-29T13:33:58.507Z,16.50
2019-03-29T13:36:28.747Z,16.40
2019-03-29T13:38:58.931Z,16.30
2019-03-29T13:41:29.203Z,16.20
2019-03-29T13:43:59.447Z,16.20
2019-03-29T13:46:29.614Z,16.30
2019-03-29T13:48:59.838Z,16.40
2019-03-29T13:51:30.067Z,16.40
2019-03-29T13:54:00.247Z,16.40
2019-03-29T13:56:30.402Z,16.50
2019-03-29T13:59:00.574Z,16.40
2019-03-29T14:01:30.760Z,16.30
2019-03-29T14:04:00.922Z,16.30
2019-03-29T14:06:31.078Z,16.40
2019-03-29T14:09:01.243Z,16.40
2019-03-29T14:11:32.775Z,16.40
2019-03-29T14:14:02.938Z,16.40
2019-03-29T14:16:33.170Z,16.30
2019-03-29T14:19:03.332Z,16.20
2019-03-29T14:21:33.477Z,16.20
2019-03-29T14:24:03.710Z,16.10
2019-03-29T14:26:33.866Z,16.00
2019-03-29T14:29:04.138Z,15.90
2019-03-29T14:31:34.386Z,15.90
2019-03-29T14:34:04.649Z,15.80
2019-03-29T14:36:34.806Z,15.70
2019-03-29T14:39:07.076Z,15.70
2019-03-29T14:41:37.246Z,15.80
2019-03-29T14:44:07.393Z,15.80
2019-03-29T14:46:37.534Z,15.80
2019-03-29T14:49:07.763Z,15.80
2019-03-29T14:51:37.965Z,15.90
2019-03-29T14:54:08.182Z,15.90
2019-03-29T14:56:38.361Z,15.90
2019-03-29T14:59:08.532Z,15.90
2019-03-29T15:01:38.681Z,15.90
2019-03-29T15:04:08.866Z,15.90
2019-03-29T15:06:39.090Z,15.90
2019-03-29T15:09:09.362Z,15.80
2019-03-29T15:11:39.551Z,15.80
2019-03-29T15:14:09.809Z,15.80
2019-03-29T15:16:40.014Z,15.70
2019-03-29T15:19:10.666Z,15.50
2019-03-29T15:21:40.997Z,15.50
2019-03-29T15:24:11.144Z,15.50
2019-03-29T15:26:41.361Z,15.60
2019-03-29T15:29:11.564Z,15.60
2019-03-29T15:31:41.735Z,15.70
2019-03-29T15:34:11.934Z,15.60
2019-03-29T15:36:42.123Z,15.60
2019-03-29T15:39:12.423Z,15.30
2019-03-29T15:41:42.618Z,15.20
2019-03-29T15:44:12.854Z,15.20
2019-03-29T15:46:43.027Z,15.30
2019-03-29T15:49:13.220Z,15.30
2019-03-29T15:51:44.362Z,15.30
2019-03-29T15:54:14.555Z,15.30
2019-03-29T15:56:44.884Z,15.30
2019-03-29T15:59:15.038Z,15.20
2019-03-29T16:01:45.205Z,15.20
2019-03-29T16:04:15.379Z,15.30
2019-03-29T16:06:45.619Z,15.20
2019-03-29T16:09:15.943Z,15.20
2019-03-29T16:11:46.130Z,15.20
2019-03-29T16:14:16.287Z,15.10
2019-03-29T16:16:46.465Z,15.10
2019-03-29T16:19:16.729Z,15.10
2019-03-29T16:21:46.917Z,15.00
2019-03-29T16:24:17.107Z,14.90
2019-03-29T16:26:47.438Z,14.90
2019-03-29T16:29:18.008Z,14.90
2019-03-29T16:31:49.490Z,14.90
2019-03-29T16:34:21.011Z,14.90
2019-03-29T16:36:52.573Z,14.90
2019-03-29T16:39:22.927Z,14.90
2019-03-29T16:41:54.633Z,14.80
2019-03-29T16:44:26.965Z,14.80
2019-03-29T16:46:57.563Z,14.70
2019-03-29T16:49:27.910Z,14.60
2019-03-29T16:51:58.459Z,14.60
2019-03-29T16:54:29.856Z,14.60
2019-03-29T16:57:02.601Z,14.60
2019-03-29T16:59:34.321Z,14.60
2019-03-29T17:02:05.274Z,14.50
2019-03-29T17:04:35.610Z,14.40
2019-03-29T17:07:06.099Z,14.50
2019-03-29T17:09:36.565Z,14.40
2019-03-29T17:12:12.362Z,14.30
2019-03-29T17:14:48.847Z,14.30
2019-03-29T17:17:20.189Z,14.20
2019-03-29T17:19:51.061Z,14.10
2019-03-29T17:22:25.025Z,14.10
2019-03-29T17:25:01.910Z,14.10
2019-03-29T17:27:37.843Z,14.00
2019-03-29T17:30:10.789Z,14.00
2019-03-29T17:32:41.392Z,13.90
2019-03-29T17:35:12.009Z,13.90
2019-03-29T17:37:43.481Z,13.80
2019-03-29T17:40:14.210Z,13.70
2019-03-29T17:42:44.734Z,13.60
2019-03-29T17:45:15.212Z,13.50
2019-03-29T17:47:45.604Z,13.50
2019-03-29T17:50:16.000Z,13.50
2019-03-29T17:52:47.880Z,13.40
2019-03-29T17:55:18.297Z,13.40
2019-03-29T17:57:48.815Z,13.40
2019-03-29T18:00:21.209Z,13.40
2019-03-29T18:02:51.643Z,13.30
2019-03-29T18:05:22.191Z,13.20
2019-03-29T18:07:52.653Z,13.10
2019-03-29T18:10:23.024Z,13.00
2019-03-29T18:12:53.349Z,12.90
2019-03-29T18:15:27.020Z,12.80
2019-03-29T18:17:57.301Z,12.80
2019-03-29T18:20:28.893Z,12.70
2019-03-29T18:23:02.229Z,12.70
2019-03-29T18:25:36.806Z,12.60
2019-03-29T18:28:08.531Z,12.50
2019-03-29T18:30:46.227Z,12.50
2019-03-29T18:33:17.508Z,12.40
2019-03-29T18:35:49.674Z,12.30
2019-03-29T18:38:20.204Z,12.30
2019-03-29T18:40:50.525Z,12.30
2019-03-29T18:43:20.875Z,12.20
2019-03-29T18:45:51.376Z,12.10
2019-03-29T18:48:21.718Z,12.00
2019-03-29T18:50:52.162Z,11.90
2019-03-29T18:53:22.475Z,11.90
2019-03-29T18:55:52.990Z,11.80
2019-03-29T18:58:23.350Z,11.80
2019-03-29T19:00:53.789Z,11.80
2019-03-29T19:03:26.473Z,11.70
2019-03-29T19:05:56.682Z,11.70
2019-03-29T19:08:26.942Z,11.70
2019-03-29T19:10:57.194Z,11.80
2019-03-29T19:13:29.323Z,11.80
2019-03-29T19:16:00.556Z,11.80
2019-03-29T19:18:36.240Z,11.70
2019-03-29T19:21:08.400Z,11.60
2019-03-29T19:23:41.466Z,11.60
2019-03-29T19:26:13.219Z,11.60
2019-03-29T19:28:48.040Z,11.50
2019-03-29T19:31:18.599Z,11.60
2019-03-29T19:33:52.438Z,11.50
2019-03-29T19:36:22.803Z,11.50
2019-03-29T19:38:52.974Z,11.50
2019-03-29T19:41:23.219Z,11.50
2019-03-29T19:43:57.114Z,11.50
2019-03-29T19:46:27.999Z,11.40
2019-03-29T19:48:59.503Z,11.30
2019-03-29T19:51:31.557Z,11.20
2019-03-29T19:54:07.690Z,11.10
2019-03-29T19:56:33.763Z,11.00
2019-03-29T19:59:05.157Z,11.00
2019-03-29T20:01:38.123Z,11.00
2019-03-29T20:04:13.618Z,11.10
2019-03-29T20:06:53.987Z,11.10
2019-03-29T20:09:26.309Z,11.10
2019-03-29T20:12:00.284Z,11.20
2019-03-29T20:14:31.947Z,11.30
2019-03-29T20:17:05.314Z,11.30
2019-03-29T20:19:37.302Z,11.30
2019-03-29T20:22:10.511Z,11.20
2019-03-29T20:24:43.611Z,11.10
2019-03-29T20:27:17.004Z,11.00
2019-03-29T20:29:51.028Z,11.00
2019-03-29T20:32:21.609Z,11.00
2019-03-29T20:34:52.068Z,11.00
2019-03-29T20:37:29.191Z,11.00
2019-03-29T20:40:06.343Z,11.00
2019-03-29T20:42:38.479Z,10.90
2019-03-29T20:45:10.292Z,10.80
2019-03-29T20:47:43.568Z,10.80
2019-03-29T20:50:14.443Z,10.70
2019-03-29T20:52:45.732Z,10.60
2019-03-29T20:55:16.349Z,10.60
2019-03-29T20:57:48.090Z,10.70
2019-03-29T21:00:20.706Z,10.70
2019-03-29T21:02:55.868Z,10.80
2019-03-29T21:05:28.918Z,10.80
2019-03-29T21:07:59.451Z,10.80
2019-03-29T21:10:31.822Z,10.70
2019-03-29T21:13:09.301Z,10.70
2019-03-29T21:15:42.012Z,10.70
2019-03-29T21:18:12.449Z,10.70
2019-03-29T21:20:43.044Z,10.60
2019-03-29T21:23:14.768Z,10.50
2019-03-29T21:25:51.522Z,10.40
2019-03-29T21:28:23.910Z,10.40
2019-03-29T21:30:54.350Z,10.30
2019-03-29T21:33:26.976Z,10.30
2019-03-29T21:35:58.891Z,10.40
2019-03-29T21:38:32.357Z,10.40
2019-03-29T21:41:04.306Z,10.40
2019-03-29T21:43:36.647Z,10.30
2019-03-29T21:46:09.169Z,10.30
2019-03-29T21:48:39.796Z,10.30
2019-03-29T21:51:10.427Z,10.20
2019-03-29T21:53:43.681Z,10.20
2019-03-29T21:56:12.821Z,10.20
2019-03-29T21:58:45.419Z,10.20
2019-03-29T22:01:15.858Z,10.20
2019-03-29T22:03:46.019Z,10.10
2019-03-29T22:06:16.182Z,10.10
2019-03-29T22:08:46.343Z,10.00
2019-03-29T22:11:16.506Z,10.00
2019-03-29T22:13:46.663Z,10.00
2019-03-29T22:16:17.793Z,10.00
2019-03-29T22:18:48.022Z,10.10
2019-03-29T22:21:18.197Z,10.10
2019-03-29T22:23:48.341Z,10.10
2019-03-29T22:26:18.566Z,10.10
2019-03-29T22:28:48.735Z,10.10
2019-03-29T22:31:18.885Z,10.00
2019-03-29T22:33:49.158Z,10.00
2019-03-29T22:36:19.326Z,9.90
2019-03-29T22:38:49.523Z,9.90
2019-03-29T22:41:19.706Z,10.00
2019-03-29T22:43:49.870Z,10.10
2019-03-29T22:46:20.317Z,10.10
2019-03-29T22:48:52.899Z,10.10
2019-03-29T22:51:22.425Z,10.00
2019-03-29T22:53:52.582Z,9.90
2019-03-29T22:56:22.746Z,9.90
2019-03-29T22:58:52.898Z,9.90
2019-03-29T23:01:23.076Z,9.90
2019-03-29T23:03:53.257Z,9.80
2019-03-29T23:06:24.456Z,9.70
2019-03-29T23:08:54.673Z,9.80
2019-03-29T23:11:24.849Z,9.80
2019-03-29T23:13:55.006Z,9.70
2019-03-29T23:16:25.157Z,9.60
2019-03-29T23:19:05.920Z,9.60
2019-03-29T23:21:27.163Z,9.60
2019-03-29T23:23:57.577Z,9.60
2019-03-29T23:26:27.716Z,9.60
2019-03-29T23:28:58.934Z,9.60
2019-03-29T23:31:30.154Z,9.60
2019-03-29T23:34:00.385Z,9.50
2019-03-29T23:36:30.522Z,9.50
2019-03-29T23:39:00.659Z,9.40
2019-03-29T23:41:31.278Z,9.50
2019-03-29T23:44:01.449Z,9.40
2019-03-29T23:46:31.642Z,9.40
2019-03-29T23:49:01.811Z,9.30
2019-03-29T23:51:31.965Z,9.30
2019-03-29T23:54:02.162Z,9.30
2019-03-29T23:56:32.413Z,9.30
2019-03-29T23:59:03.612Z,9.30
